sensor_id;sensor_type;location;lat;lon;timestamp;temperature;humidity
75262;DHT22;63859;51.064;4.580;2023-01-05T00:00:20;10.90;99.90
75262;DHT22;63859;51.064;4.580;2023-01-05T00:02:46;10.80;99.90
75262;DHT22;63859;51.064;4.580;2023-01-05T00:05:12;10.90;99.90
75262;DHT22;63859;51.064;4.580;2023-01-05T00:07:37;10.90;99.90
75262;DHT22;63859;51.064;4.580;2023-01-05T00:10:03;10.90;99.90
75262;DHT22;63859;51.064;4.580;2023-01-05T00:12:29;10.90;99.90
75262;DHT22;63859;51.064;4.580;2023-01-05T00:15:13;10.90;99.90
75262;DHT22;63859;51.064;4.580;2023-01-05T00:17:57;10.90;99.90
75262;DHT22;63859;51.064;4.580;2023-01-05T00:20:41;10.90;99.90
75262;DHT22;63859;51.064;4.580;2023-01-05T00:23:25;10.80;99.90
75262;DHT22;63859;51.064;4.580;2023-01-05T00:25:51;10.90;99.90
75262;DHT22;63859;51.064;4.580;2023-01-05T00:28:17;10.90;99.90
75262;DHT22;63859;51.064;4.580;2023-01-05T00:30:44;10.90;99.90
75262;DHT22;63859;51.064;4.580;2023-01-05T00:33:12;10.90;99.90
75262;DHT22;63859;51.064;4.580;2023-01-05T00:35:38;10.90;99.90
75262;DHT22;63859;51.064;4.580;2023-01-05T00:38:05;10.90;99.90
75262;DHT22;63859;51.064;4.580;2023-01-05T00:40:31;10.90;99.90
75262;DHT22;63859;51.064;4.580;2023-01-05T00:42:58;11.00;99.90
75262;DHT22;63859;51.064;4.580;2023-01-05T00:45:24;10.90;99.90
75262;DHT22;63859;51.064;4.580;2023-01-05T00:47:49;10.90;99.90
75262;DHT22;63859;51.064;4.580;2023-01-05T00:50:20;11.00;99.90
75262;DHT22;63859;51.064;4.580;2023-01-05T00:52:46;10.90;99.90
75262;DHT22;63859;51.064;4.580;2023-01-05T00:55:12;10.90;99.90
75262;DHT22;63859;51.064;4.580;2023-01-05T00:57:38;10.90;99.90
75262;DHT22;63859;51.064;4.580;2023-01-05T01:00:05;10.90;99.90
75262;DHT22;63859;51.064;4.580;2023-01-05T01:02:32;10.90;99.90
75262;DHT22;63859;51.064;4.580;2023-01-05T01:04:57;10.90;99.90
75262;DHT22;63859;51.064;4.580;2023-01-05T01:07:23;10.90;99.90
75262;DHT22;63859;51.064;4.580;2023-01-05T01:09:48;10.80;99.90
75262;DHT22;63859;51.064;4.580;2023-01-05T01:12:14;10.90;99.90
75262;DHT22;63859;51.064;4.580;2023-01-05T01:14:40;10.90;99.90
75262;DHT22;63859;51.064;4.580;2023-01-05T01:17:05;10.80;99.90
75262;DHT22;63859;51.064;4.580;2023-01-05T01:19:31;10.90;99.90
75262;DHT22;63859;51.064;4.580;2023-01-05T01:21:58;10.80;99.90
75262;DHT22;63859;51.064;4.580;2023-01-05T01:24:25;10.80;99.90
75262;DHT22;63859;51.064;4.580;2023-01-05T01:26:52;10.90;99.90
75262;DHT22;63859;51.064;4.580;2023-01-05T01:29:19;10.70;99.90
75262;DHT22;63859;51.064;4.580;2023-01-05T01:31:50;10.70;99.90
75262;DHT22;63859;51.064;4.580;2023-01-05T01:34:17;10.80;99.90
75262;DHT22;63859;51.064;4.580;2023-01-05T01:36:43;10.80;99.90
75262;DHT22;63859;51.064;4.580;2023-01-05T01:39:10;10.80;99.90
75262;DHT22;63859;51.064;4.580;2023-01-05T01:41:37;10.80;99.90
75262;DHT22;63859;51.064;4.580;2023-01-05T01:47:08;10.70;99.90
75262;DHT22;63859;51.064;4.580;2023-01-05T01:49:34;10.70;99.90
75262;DHT22;63859;51.064;4.580;2023-01-05T01:51:59;10.80;99.90
75262;DHT22;63859;51.064;4.580;2023-01-05T01:54:25;10.70;99.90
75262;DHT22;63859;51.064;4.580;2023-01-05T01:56:53;10.80;99.90
75262;DHT22;63859;51.064;4.580;2023-01-05T01:59:20;10.70;99.90
75262;DHT22;63859;51.064;4.580;2023-01-05T02:01:48;10.70;99.90
75262;DHT22;63859;51.064;4.580;2023-01-05T02:04:14;10.70;99.90
75262;DHT22;63859;51.064;4.580;2023-01-05T02:06:40;10.70;99.90
75262;DHT22;63859;51.064;4.580;2023-01-05T02:09:06;10.70;99.90
75262;DHT22;63859;51.064;4.580;2023-01-05T02:14:21;10.70;99.90
75262;DHT22;63859;51.064;4.580;2023-01-05T02:31:12;10.80;99.90
75262;DHT22;63859;51.064;4.580;2023-01-05T02:39:04;10.80;99.90
75262;DHT22;63859;51.064;4.580;2023-01-05T02:44:01;10.80;99.90
75262;DHT22;63859;51.064;4.580;2023-01-05T02:46:28;10.90;99.90
75262;DHT22;63859;51.064;4.580;2023-01-05T02:48:55;10.90;99.90
75262;DHT22;63859;51.064;4.580;2023-01-05T02:51:35;10.90;99.90
75262;DHT22;63859;51.064;4.580;2023-01-05T02:54:06;10.80;99.90
75262;DHT22;63859;51.064;4.580;2023-01-05T02:56:47;10.90;99.90
75262;DHT22;63859;51.064;4.580;2023-01-05T02:59:22;10.90;99.90
75262;DHT22;63859;51.064;4.580;2023-01-05T03:02:05;10.90;99.90
75262;DHT22;63859;51.064;4.580;2023-01-05T03:07:10;10.90;99.90
75262;DHT22;63859;51.064;4.580;2023-01-05T03:09:39;10.90;99.90
75262;DHT22;63859;51.064;4.580;2023-01-05T03:12:21;10.90;99.90
75262;DHT22;63859;51.064;4.580;2023-01-05T03:15:21;10.90;99.90
75262;DHT22;63859;51.064;4.580;2023-01-05T03:17:56;11.00;99.90
75262;DHT22;63859;51.064;4.580;2023-01-05T03:20:24;11.00;99.90
75262;DHT22;63859;51.064;4.580;2023-01-05T03:22:51;11.00;99.90
75262;DHT22;63859;51.064;4.580;2023-01-05T03:25:40;11.00;99.90
75262;DHT22;63859;51.064;4.580;2023-01-05T03:34:32;11.00;99.90
75262;DHT22;63859;51.064;4.580;2023-01-05T03:37:27;11.00;99.90
75262;DHT22;63859;51.064;4.580;2023-01-05T03:39:55;10.90;99.90
75262;DHT22;63859;51.064;4.580;2023-01-05T03:42:21;11.00;99.90
75262;DHT22;63859;51.064;4.580;2023-01-05T03:44:48;11.00;99.90
75262;DHT22;63859;51.064;4.580;2023-01-05T03:47:14;11.00;99.90
75262;DHT22;63859;51.064;4.580;2023-01-05T03:49:40;11.00;99.90
75262;DHT22;63859;51.064;4.580;2023-01-05T03:52:06;10.90;99.90
75262;DHT22;63859;51.064;4.580;2023-01-05T03:54:31;11.00;99.90
75262;DHT22;63859;51.064;4.580;2023-01-05T03:56:57;11.00;99.90
75262;DHT22;63859;51.064;4.580;2023-01-05T03:59:22;11.00;99.90
75262;DHT22;63859;51.064;4.580;2023-01-05T04:01:48;11.00;99.90
75262;DHT22;63859;51.064;4.580;2023-01-05T04:04:14;11.00;99.90
75262;DHT22;63859;51.064;4.580;2023-01-05T04:06:39;10.90;99.90
75262;DHT22;63859;51.064;4.580;2023-01-05T04:09:05;10.90;99.90
75262;DHT22;63859;51.064;4.580;2023-01-05T04:11:31;11.00;99.90
75262;DHT22;63859;51.064;4.580;2023-01-05T04:13:56;11.00;99.90
75262;DHT22;63859;51.064;4.580;2023-01-05T04:16:22;11.00;99.90
75262;DHT22;63859;51.064;4.580;2023-01-05T04:18:48;11.00;99.90
75262;DHT22;63859;51.064;4.580;2023-01-05T04:21:14;11.00;99.90
75262;DHT22;63859;51.064;4.580;2023-01-05T04:23:39;10.90;99.90
75262;DHT22;63859;51.064;4.580;2023-01-05T04:26:06;11.00;99.90
75262;DHT22;63859;51.064;4.580;2023-01-05T04:28:31;11.00;99.90
75262;DHT22;63859;51.064;4.580;2023-01-05T04:30:57;10.90;99.90
75262;DHT22;63859;51.064;4.580;2023-01-05T04:33:24;11.00;99.90
75262;DHT22;63859;51.064;4.580;2023-01-05T04:35:50;10.90;99.90
75262;DHT22;63859;51.064;4.580;2023-01-05T04:38:16;10.90;99.90
75262;DHT22;63859;51.064;4.580;2023-01-05T04:40:46;10.90;99.90
75262;DHT22;63859;51.064;4.580;2023-01-05T04:43:11;10.80;99.90
75262;DHT22;63859;51.064;4.580;2023-01-05T04:45:37;10.90;99.90
75262;DHT22;63859;51.064;4.580;2023-01-05T04:48:03;10.80;99.90
75262;DHT22;63859;51.064;4.580;2023-01-05T04:50:28;10.80;99.90
75262;DHT22;63859;51.064;4.580;2023-01-05T04:52:54;10.90;99.90
75262;DHT22;63859;51.064;4.580;2023-01-05T04:55:20;10.90;99.90
75262;DHT22;63859;51.064;4.580;2023-01-05T04:57:45;10.90;99.90
75262;DHT22;63859;51.064;4.580;2023-01-05T05:00:11;10.90;99.90
75262;DHT22;63859;51.064;4.580;2023-01-05T05:02:37;10.80;99.90
75262;DHT22;63859;51.064;4.580;2023-01-05T05:05:03;10.80;99.90
75262;DHT22;63859;51.064;4.580;2023-01-05T05:07:28;10.80;99.90
75262;DHT22;63859;51.064;4.580;2023-01-05T05:09:54;10.80;99.90
75262;DHT22;63859;51.064;4.580;2023-01-05T05:12:20;10.80;99.90
75262;DHT22;63859;51.064;4.580;2023-01-05T05:14:48;10.80;99.90
75262;DHT22;63859;51.064;4.580;2023-01-05T05:17:15;10.80;99.90
75262;DHT22;63859;51.064;4.580;2023-01-05T05:19:41;10.80;99.90
75262;DHT22;63859;51.064;4.580;2023-01-05T05:22:07;10.80;99.90
75262;DHT22;63859;51.064;4.580;2023-01-05T05:24:33;10.80;99.90
75262;DHT22;63859;51.064;4.580;2023-01-05T05:26:58;10.80;99.90
75262;DHT22;63859;51.064;4.580;2023-01-05T05:29:24;10.80;99.90
75262;DHT22;63859;51.064;4.580;2023-01-05T05:31:50;10.80;99.90
75262;DHT22;63859;51.064;4.580;2023-01-05T05:34:17;10.90;99.90
75262;DHT22;63859;51.064;4.580;2023-01-05T05:36:43;10.90;99.90
75262;DHT22;63859;51.064;4.580;2023-01-05T05:39:13;10.90;99.90
75262;DHT22;63859;51.064;4.580;2023-01-05T05:41:39;10.90;99.90
75262;DHT22;63859;51.064;4.580;2023-01-05T05:44:04;10.90;99.90
75262;DHT22;63859;51.064;4.580;2023-01-05T05:46:30;10.90;99.90
75262;DHT22;63859;51.064;4.580;2023-01-05T05:48:57;10.90;99.90
75262;DHT22;63859;51.064;4.580;2023-01-05T05:51:23;10.90;99.90
75262;DHT22;63859;51.064;4.580;2023-01-05T05:53:49;10.90;99.90
75262;DHT22;63859;51.064;4.580;2023-01-05T05:56:15;10.90;99.90
75262;DHT22;63859;51.064;4.580;2023-01-05T05:58:41;10.90;99.90
75262;DHT22;63859;51.064;4.580;2023-01-05T06:01:07;10.90;99.90
75262;DHT22;63859;51.064;4.580;2023-01-05T06:03:32;10.90;99.90
75262;DHT22;63859;51.064;4.580;2023-01-05T06:05:58;10.90;99.90
75262;DHT22;63859;51.064;4.580;2023-01-05T06:08:23;10.90;99.90
75262;DHT22;63859;51.064;4.580;2023-01-05T06:10:51;10.80;99.90
75262;DHT22;63859;51.064;4.580;2023-01-05T06:13:17;10.80;99.90
75262;DHT22;63859;51.064;4.580;2023-01-05T06:15:43;10.80;99.90
75262;DHT22;63859;51.064;4.580;2023-01-05T06:18:08;10.80;99.90
75262;DHT22;63859;51.064;4.580;2023-01-05T06:20:34;10.70;99.90
75262;DHT22;63859;51.064;4.580;2023-01-05T06:23:00;10.70;99.90
75262;DHT22;63859;51.064;4.580;2023-01-05T06:25:26;10.70;99.90
75262;DHT22;63859;51.064;4.580;2023-01-05T06:27:52;10.70;99.90
75262;DHT22;63859;51.064;4.580;2023-01-05T06:30:17;10.70;99.90
75262;DHT22;63859;51.064;4.580;2023-01-05T06:32:43;10.70;99.90
75262;DHT22;63859;51.064;4.580;2023-01-05T06:35:09;10.70;99.90
75262;DHT22;63859;51.064;4.580;2023-01-05T06:37:34;10.70;99.90
75262;DHT22;63859;51.064;4.580;2023-01-05T06:40:00;10.70;99.90
75262;DHT22;63859;51.064;4.580;2023-01-05T06:42:26;10.70;99.90
75262;DHT22;63859;51.064;4.580;2023-01-05T06:44:51;10.70;99.90
75262;DHT22;63859;51.064;4.580;2023-01-05T06:47:17;10.70;99.90
75262;DHT22;63859;51.064;4.580;2023-01-05T06:49:43;10.70;99.90
75262;DHT22;63859;51.064;4.580;2023-01-05T06:52:09;10.70;99.90
75262;DHT22;63859;51.064;4.580;2023-01-05T06:54:34;10.70;99.90
75262;DHT22;63859;51.064;4.580;2023-01-05T06:57:00;10.70;99.90
75262;DHT22;63859;51.064;4.580;2023-01-05T06:59:25;10.80;99.90
75262;DHT22;63859;51.064;4.580;2023-01-05T07:01:51;10.70;99.90
75262;DHT22;63859;51.064;4.580;2023-01-05T07:04:16;10.70;99.90
75262;DHT22;63859;51.064;4.580;2023-01-05T07:06:42;10.70;99.90
75262;DHT22;63859;51.064;4.580;2023-01-05T07:09:08;10.70;99.90
75262;DHT22;63859;51.064;4.580;2023-01-05T07:11:34;10.70;99.90
75262;DHT22;63859;51.064;4.580;2023-01-05T07:13:59;10.70;99.90
75262;DHT22;63859;51.064;4.580;2023-01-05T07:16:25;10.70;99.90
75262;DHT22;63859;51.064;4.580;2023-01-05T07:18:50;10.70;99.90
75262;DHT22;63859;51.064;4.580;2023-01-05T07:21:16;10.70;99.90
75262;DHT22;63859;51.064;4.580;2023-01-05T07:23:41;10.70;99.90
75262;DHT22;63859;51.064;4.580;2023-01-05T07:26:08;10.70;99.90
75262;DHT22;63859;51.064;4.580;2023-01-05T07:28:35;10.70;99.90
75262;DHT22;63859;51.064;4.580;2023-01-05T07:31:02;10.60;99.90
75262;DHT22;63859;51.064;4.580;2023-01-05T07:33:27;10.60;99.90
75262;DHT22;63859;51.064;4.580;2023-01-05T07:35:53;10.60;99.90
75262;DHT22;63859;51.064;4.580;2023-01-05T07:38:19;10.60;99.90
75262;DHT22;63859;51.064;4.580;2023-01-05T07:40:44;10.60;99.90
75262;DHT22;63859;51.064;4.580;2023-01-05T07:43:10;10.70;99.90
75262;DHT22;63859;51.064;4.580;2023-01-05T07:45:36;10.60;99.90
75262;DHT22;63859;51.064;4.580;2023-01-05T07:48:02;10.60;99.90
75262;DHT22;63859;51.064;4.580;2023-01-05T07:50:28;10.60;99.90
75262;DHT22;63859;51.064;4.580;2023-01-05T07:52:54;10.60;99.90
75262;DHT22;63859;51.064;4.580;2023-01-05T07:55:19;10.60;99.90
75262;DHT22;63859;51.064;4.580;2023-01-05T07:57:45;10.60;99.90
75262;DHT22;63859;51.064;4.580;2023-01-05T08:00:12;10.60;99.90
75262;DHT22;63859;51.064;4.580;2023-01-05T08:02:39;10.60;99.90
75262;DHT22;63859;51.064;4.580;2023-01-05T08:05:06;10.60;99.90
75262;DHT22;63859;51.064;4.580;2023-01-05T08:07:31;10.60;99.90
75262;DHT22;63859;51.064;4.580;2023-01-05T08:09:57;10.50;99.90
75262;DHT22;63859;51.064;4.580;2023-01-05T08:12:41;10.50;99.90
75262;DHT22;63859;51.064;4.580;2023-01-05T08:15:25;10.50;99.90
75262;DHT22;63859;51.064;4.580;2023-01-05T08:17:50;10.50;99.90
75262;DHT22;63859;51.064;4.580;2023-01-05T08:20:16;10.50;99.90
75262;DHT22;63859;51.064;4.580;2023-01-05T08:22:42;10.50;99.90
75262;DHT22;63859;51.064;4.580;2023-01-05T08:25:08;10.50;99.90
75262;DHT22;63859;51.064;4.580;2023-01-05T08:27:34;10.50;99.90
75262;DHT22;63859;51.064;4.580;2023-01-05T08:30:00;10.50;99.90
75262;DHT22;63859;51.064;4.580;2023-01-05T08:32:25;10.50;99.90
75262;DHT22;63859;51.064;4.580;2023-01-05T08:34:51;10.50;99.90
75262;DHT22;63859;51.064;4.580;2023-01-05T08:37:16;10.50;99.90
75262;DHT22;63859;51.064;4.580;2023-01-05T08:39:43;10.50;99.90
75262;DHT22;63859;51.064;4.580;2023-01-05T08:42:09;10.50;99.90
75262;DHT22;63859;51.064;4.580;2023-01-05T08:44:34;10.50;99.90
75262;DHT22;63859;51.064;4.580;2023-01-05T08:47:00;10.60;99.90
75262;DHT22;63859;51.064;4.580;2023-01-05T08:49:26;10.50;99.90
75262;DHT22;63859;51.064;4.580;2023-01-05T08:51:52;10.60;99.90
75262;DHT22;63859;51.064;4.580;2023-01-05T08:54:17;10.50;99.90
75262;DHT22;63859;51.064;4.580;2023-01-05T08:56:43;10.50;99.90
75262;DHT22;63859;51.064;4.580;2023-01-05T08:59:12;10.50;99.90
75262;DHT22;63859;51.064;4.580;2023-01-05T09:01:38;10.50;99.90
75262;DHT22;63859;51.064;4.580;2023-01-05T09:04:04;10.60;99.90
75262;DHT22;63859;51.064;4.580;2023-01-05T09:06:30;10.60;99.90
75262;DHT22;63859;51.064;4.580;2023-01-05T09:08:55;10.60;99.90
75262;DHT22;63859;51.064;4.580;2023-01-05T09:11:23;10.60;99.90
75262;DHT22;63859;51.064;4.580;2023-01-05T09:13:52;10.60;99.90
75262;DHT22;63859;51.064;4.580;2023-01-05T09:16:20;10.60;99.90
75262;DHT22;63859;51.064;4.580;2023-01-05T09:18:47;10.70;99.90
75262;DHT22;63859;51.064;4.580;2023-01-05T09:21:13;10.60;99.90
75262;DHT22;63859;51.064;4.580;2023-01-05T09:23:39;10.60;99.90
75262;DHT22;63859;51.064;4.580;2023-01-05T09:26:06;10.50;99.90
75262;DHT22;63859;51.064;4.580;2023-01-05T09:28:33;10.60;99.90
75262;DHT22;63859;51.064;4.580;2023-01-05T09:31:06;10.60;99.90
75262;DHT22;63859;51.064;4.580;2023-01-05T09:33:31;10.60;99.90
75262;DHT22;63859;51.064;4.580;2023-01-05T09:35:57;10.60;99.90
75262;DHT22;63859;51.064;4.580;2023-01-05T09:38:23;10.50;99.90
75262;DHT22;63859;51.064;4.580;2023-01-05T09:40:50;10.50;99.90
75262;DHT22;63859;51.064;4.580;2023-01-05T09:43:26;10.50;99.90
75262;DHT22;63859;51.064;4.580;2023-01-05T09:45:53;10.50;99.90
75262;DHT22;63859;51.064;4.580;2023-01-05T09:48:19;10.50;99.90
75262;DHT22;63859;51.064;4.580;2023-01-05T09:50:48;10.50;99.90
75262;DHT22;63859;51.064;4.580;2023-01-05T09:53:15;10.50;99.90
75262;DHT22;63859;51.064;4.580;2023-01-05T09:55:45;10.50;99.90
75262;DHT22;63859;51.064;4.580;2023-01-05T09:58:15;10.40;99.90
75262;DHT22;63859;51.064;4.580;2023-01-05T10:00:47;10.50;99.90
75262;DHT22;63859;51.064;4.580;2023-01-05T10:03:18;10.50;99.90
75262;DHT22;63859;51.064;4.580;2023-01-05T10:05:46;10.50;99.90
75262;DHT22;63859;51.064;4.580;2023-01-05T10:08:41;10.50;99.90
75262;DHT22;63859;51.064;4.580;2023-01-05T10:11:29;10.50;99.90
75262;DHT22;63859;51.064;4.580;2023-01-05T10:14:19;10.50;99.90
75262;DHT22;63859;51.064;4.580;2023-01-05T10:16:46;10.40;99.90
75262;DHT22;63859;51.064;4.580;2023-01-05T10:19:17;10.50;99.90
75262;DHT22;63859;51.064;4.580;2023-01-05T10:27:17;10.50;99.90
75262;DHT22;63859;51.064;4.580;2023-01-05T10:29:47;10.50;99.90
75262;DHT22;63859;51.064;4.580;2023-01-05T10:32:31;10.50;99.90
75262;DHT22;63859;51.064;4.580;2023-01-05T10:35:23;10.50;99.90
75262;DHT22;63859;51.064;4.580;2023-01-05T10:38:28;10.60;99.90
75262;DHT22;63859;51.064;4.580;2023-01-05T10:46:40;10.60;99.90
75262;DHT22;63859;51.064;4.580;2023-01-05T10:49:07;10.60;99.90
75262;DHT22;63859;51.064;4.580;2023-01-05T10:51:34;10.60;99.90
75262;DHT22;63859;51.064;4.580;2023-01-05T10:54:01;10.70;99.90
75262;DHT22;63859;51.064;4.580;2023-01-05T10:56:27;10.70;99.90
75262;DHT22;63859;51.064;4.580;2023-01-05T10:59:26;10.80;99.90
75262;DHT22;63859;51.064;4.580;2023-01-05T11:01:52;10.90;99.90
75262;DHT22;63859;51.064;4.580;2023-01-05T11:04:20;10.90;99.90
75262;DHT22;63859;51.064;4.580;2023-01-05T11:06:48;11.00;99.90
75262;DHT22;63859;51.064;4.580;2023-01-05T11:09:18;11.00;99.90
75262;DHT22;63859;51.064;4.580;2023-01-05T11:11:56;11.00;99.90
75262;DHT22;63859;51.064;4.580;2023-01-05T11:14:23;11.10;99.90
75262;DHT22;63859;51.064;4.580;2023-01-05T11:16:51;11.20;99.90
75262;DHT22;63859;51.064;4.580;2023-01-05T11:19:22;11.30;99.90
75262;DHT22;63859;51.064;4.580;2023-01-05T11:21:48;11.30;99.90
75262;DHT22;63859;51.064;4.580;2023-01-05T11:26:54;11.40;99.90
75262;DHT22;63859;51.064;4.580;2023-01-05T11:29:20;11.40;99.90
75262;DHT22;63859;51.064;4.580;2023-01-05T11:31:52;11.40;99.90
75262;DHT22;63859;51.064;4.580;2023-01-05T11:37:06;11.50;99.90
75262;DHT22;63859;51.064;4.580;2023-01-05T11:39:52;11.50;99.90
75262;DHT22;63859;51.064;4.580;2023-01-05T11:42:28;11.50;99.90
75262;DHT22;63859;51.064;4.580;2023-01-05T11:45:19;11.50;99.90
75262;DHT22;63859;51.064;4.580;2023-01-05T11:47:52;11.60;99.90
75262;DHT22;63859;51.064;4.580;2023-01-05T11:52:50;11.60;99.90
75262;DHT22;63859;51.064;4.580;2023-01-05T11:57:52;11.60;99.90
75262;DHT22;63859;51.064;4.580;2023-01-05T12:00:26;11.60;99.90
75262;DHT22;63859;51.064;4.580;2023-01-05T12:05:46;11.50;99.90
75262;DHT22;63859;51.064;4.580;2023-01-05T12:08:19;11.50;99.90
75262;DHT22;63859;51.064;4.580;2023-01-05T12:16:35;11.50;99.90
75262;DHT22;63859;51.064;4.580;2023-01-05T12:19:12;11.60;99.90
75262;DHT22;63859;51.064;4.580;2023-01-05T12:28:06;11.60;99.90
75262;DHT22;63859;51.064;4.580;2023-01-05T12:33:37;11.60;99.90
75262;DHT22;63859;51.064;4.580;2023-01-05T12:36:35;11.60;99.90
75262;DHT22;63859;51.064;4.580;2023-01-05T12:51:07;11.60;99.90
75262;DHT22;63859;51.064;4.580;2023-01-05T12:56:07;11.60;99.90
75262;DHT22;63859;51.064;4.580;2023-01-05T12:58:42;11.70;99.90
75262;DHT22;63859;51.064;4.580;2023-01-05T13:01:25;11.70;99.90
75262;DHT22;63859;51.064;4.580;2023-01-05T13:03:57;11.70;99.90
75262;DHT22;63859;51.064;4.580;2023-01-05T13:06:25;11.70;99.90
75262;DHT22;63859;51.064;4.580;2023-01-05T13:08:58;11.70;99.90
75262;DHT22;63859;51.064;4.580;2023-01-05T13:11:30;11.70;99.90
75262;DHT22;63859;51.064;4.580;2023-01-05T13:16:44;11.80;99.90
75262;DHT22;63859;51.064;4.580;2023-01-05T13:19:42;11.80;99.90
75262;DHT22;63859;51.064;4.580;2023-01-05T13:22:13;11.80;99.90
75262;DHT22;63859;51.064;4.580;2023-01-05T13:27:26;11.70;99.90
75262;DHT22;63859;51.064;4.580;2023-01-05T13:29:54;11.70;99.90
75262;DHT22;63859;51.064;4.580;2023-01-05T13:44:18;11.30;99.90
75262;DHT22;63859;51.064;4.580;2023-01-05T13:46:56;11.20;99.90
75262;DHT22;63859;51.064;4.580;2023-01-05T13:54:56;11.10;99.90
75262;DHT22;63859;51.064;4.580;2023-01-05T13:57:37;11.10;99.90
75262;DHT22;63859;51.064;4.580;2023-01-05T14:03:01;11.10;99.90
75262;DHT22;63859;51.064;4.580;2023-01-05T14:05:46;11.10;99.90
75262;DHT22;63859;51.064;4.580;2023-01-05T14:08:28;11.10;99.90
75262;DHT22;63859;51.064;4.580;2023-01-05T14:11:14;11.10;99.90
75262;DHT22;63859;51.064;4.580;2023-01-05T14:24:39;11.10;99.90
75262;DHT22;63859;51.064;4.580;2023-01-05T14:32:12;11.00;99.90
75262;DHT22;63859;51.064;4.580;2023-01-05T14:34:53;11.00;99.90
75262;DHT22;63859;51.064;4.580;2023-01-05T14:40:35;11.00;99.90
75262;DHT22;63859;51.064;4.580;2023-01-05T14:43:06;11.00;99.90
75262;DHT22;63859;51.064;4.580;2023-01-05T14:45:34;11.00;99.90
75262;DHT22;63859;51.064;4.580;2023-01-05T14:48:04;11.00;99.90
75262;DHT22;63859;51.064;4.580;2023-01-05T14:50:36;11.00;99.90
75262;DHT22;63859;51.064;4.580;2023-01-05T14:53:05;11.00;99.90
75262;DHT22;63859;51.064;4.580;2023-01-05T14:55:37;11.00;99.90
75262;DHT22;63859;51.064;4.580;2023-01-05T14:58:14;11.00;99.90
75262;DHT22;63859;51.064;4.580;2023-01-05T15:00:58;11.00;99.90
75262;DHT22;63859;51.064;4.580;2023-01-05T15:09:24;11.10;99.90
75262;DHT22;63859;51.064;4.580;2023-01-05T15:12:13;11.20;99.90
75262;DHT22;63859;51.064;4.580;2023-01-05T15:34:17;11.30;99.90
75262;DHT22;63859;51.064;4.580;2023-01-05T15:37:02;11.30;99.90
75262;DHT22;63859;51.064;4.580;2023-01-05T15:39:32;11.30;99.90
75262;DHT22;63859;51.064;4.580;2023-01-05T15:42:05;11.30;99.90
75262;DHT22;63859;51.064;4.580;2023-01-05T15:44:36;11.30;99.90
75262;DHT22;63859;51.064;4.580;2023-01-05T15:47:04;11.40;99.90
75262;DHT22;63859;51.064;4.580;2023-01-05T15:49:33;11.40;99.90
75262;DHT22;63859;51.064;4.580;2023-01-05T15:51:59;11.40;99.90
75262;DHT22;63859;51.064;4.580;2023-01-05T15:54:28;11.40;99.90
75262;DHT22;63859;51.064;4.580;2023-01-05T15:56:54;11.40;99.90
75262;DHT22;63859;51.064;4.580;2023-01-05T15:59:30;11.40;99.90
75262;DHT22;63859;51.064;4.580;2023-01-05T16:01:57;11.40;99.90
75262;DHT22;63859;51.064;4.580;2023-01-05T16:04:23;11.50;99.90
75262;DHT22;63859;51.064;4.580;2023-01-05T16:06:57;11.40;99.90
75262;DHT22;63859;51.064;4.580;2023-01-05T16:09:29;11.50;99.90
75262;DHT22;63859;51.064;4.580;2023-01-05T16:12:21;11.40;99.90
75262;DHT22;63859;51.064;4.580;2023-01-05T16:14:56;11.50;99.90
75262;DHT22;63859;51.064;4.580;2023-01-05T16:17:27;11.50;99.90
75262;DHT22;63859;51.064;4.580;2023-01-05T16:20:19;11.40;99.90
75262;DHT22;63859;51.064;4.580;2023-01-05T16:22:50;11.50;99.90
75262;DHT22;63859;51.064;4.580;2023-01-05T16:26:25;11.50;99.90
75262;DHT22;63859;51.064;4.580;2023-01-05T16:28:21;11.50;99.90
75262;DHT22;63859;51.064;4.580;2023-01-05T16:30:48;11.50;99.90
75262;DHT22;63859;51.064;4.580;2023-01-05T16:33:29;11.50;99.90
75262;DHT22;63859;51.064;4.580;2023-01-05T16:36:06;11.50;99.90
75262;DHT22;63859;51.064;4.580;2023-01-05T16:38:32;11.50;99.90
75262;DHT22;63859;51.064;4.580;2023-01-05T16:43:40;11.50;99.90
75262;DHT22;63859;51.064;4.580;2023-01-05T16:51:18;11.50;99.90
75262;DHT22;63859;51.064;4.580;2023-01-05T16:53:47;11.50;99.90
75262;DHT22;63859;51.064;4.580;2023-01-05T16:56:23;11.50;99.90
75262;DHT22;63859;51.064;4.580;2023-01-05T17:02:29;11.50;99.90
75262;DHT22;63859;51.064;4.580;2023-01-05T17:04:55;11.50;99.90
75262;DHT22;63859;51.064;4.580;2023-01-05T17:07:20;11.50;99.90
75262;DHT22;63859;51.064;4.580;2023-01-05T17:09:46;11.50;99.90
75262;DHT22;63859;51.064;4.580;2023-01-05T17:12:13;11.50;99.90
75262;DHT22;63859;51.064;4.580;2023-01-05T17:14:39;11.50;99.90
75262;DHT22;63859;51.064;4.580;2023-01-05T17:17:09;11.50;99.90
75262;DHT22;63859;51.064;4.580;2023-01-05T17:19:35;11.50;99.90
75262;DHT22;63859;51.064;4.580;2023-01-05T17:22:02;11.50;99.90
75262;DHT22;63859;51.064;4.580;2023-01-05T17:24:29;11.50;99.90
75262;DHT22;63859;51.064;4.580;2023-01-05T17:26:55;11.50;99.90
75262;DHT22;63859;51.064;4.580;2023-01-05T17:29:23;11.50;99.90
75262;DHT22;63859;51.064;4.580;2023-01-05T17:31:48;11.50;99.90
75262;DHT22;63859;51.064;4.580;2023-01-05T17:34:14;11.50;99.90
75262;DHT22;63859;51.064;4.580;2023-01-05T17:36:41;11.50;99.90
75262;DHT22;63859;51.064;4.580;2023-01-05T17:39:07;11.50;99.90
75262;DHT22;63859;51.064;4.580;2023-01-05T17:41:34;11.50;99.90
75262;DHT22;63859;51.064;4.580;2023-01-05T17:43:59;11.50;99.90
75262;DHT22;63859;51.064;4.580;2023-01-05T17:46:30;11.50;99.90
75262;DHT22;63859;51.064;4.580;2023-01-05T17:48:57;11.50;99.90
75262;DHT22;63859;51.064;4.580;2023-01-05T17:51:25;11.50;99.90
75262;DHT22;63859;51.064;4.580;2023-01-05T17:53:56;11.50;99.90
75262;DHT22;63859;51.064;4.580;2023-01-05T17:56:23;11.60;99.90
75262;DHT22;63859;51.064;4.580;2023-01-05T17:58:48;11.60;99.90
75262;DHT22;63859;51.064;4.580;2023-01-05T18:01:14;11.50;99.90
75262;DHT22;63859;51.064;4.580;2023-01-05T18:03:40;11.60;99.90
75262;DHT22;63859;51.064;4.580;2023-01-05T18:06:05;11.60;99.90
75262;DHT22;63859;51.064;4.580;2023-01-05T18:08:34;11.60;99.90
75262;DHT22;63859;51.064;4.580;2023-01-05T18:11:01;11.60;99.90
75262;DHT22;63859;51.064;4.580;2023-01-05T18:13:27;11.60;99.90
75262;DHT22;63859;51.064;4.580;2023-01-05T18:15:52;11.60;99.90
75262;DHT22;63859;51.064;4.580;2023-01-05T18:18:20;11.60;99.90
75262;DHT22;63859;51.064;4.580;2023-01-05T18:20:46;11.60;99.90
75262;DHT22;63859;51.064;4.580;2023-01-05T18:23:14;11.60;99.90
75262;DHT22;63859;51.064;4.580;2023-01-05T18:25:40;11.60;99.90
75262;DHT22;63859;51.064;4.580;2023-01-05T18:28:06;11.60;99.90
75262;DHT22;63859;51.064;4.580;2023-01-05T18:30:31;11.60;99.90
75262;DHT22;63859;51.064;4.580;2023-01-05T18:32:57;11.60;99.90
75262;DHT22;63859;51.064;4.580;2023-01-05T18:35:23;11.50;99.90